This is the latest recevied weather packets stored in our database for station/object GW1468. If no packets are shown the sender has not sent any weather packets the latest 10 day(s).
| Time | Temp. | Humidity | Pressure | Rain* | Wind** | Luminosity | Snow |
|---|---|---|---|---|---|---|---|
| 1777533164 | 10.56° C | 99% | - | 0 mm | - | - | - |
| 1777529177 | 11.11° C | 99% | - | 0 mm | - | - | - |
| 1777525575 | 11.11° C | 99% | - | 0 mm | - | - | - |
| 1777523807 | 11.11° C | 99% | - | 0 mm | - | - | - |
| 1777522339 | 11.11° C | 99% | - | 0 mm | - | - | - |
| 1777519854 | 11.11° C | 99% | - | 8.89 mm | - | - | - |
| 1777518740 | 11.11° C | 99% | - | 8.89 mm | - | - | - |
| 1777518380 | 11.11° C | 99% | - | 8.89 mm | - | - | - |
| 1777515868 | 11.67° C | 99% | - | 8.89 mm | - | - | - |
| 1777515498 | 11.67° C | 99% | - | 8.89 mm | - | - | - |
| 1777515131 | 12.22° C | 99% | - | 8.89 mm | - | - | - |
| 1777512972 | 12.78° C | 99% | - | 8.89 mm | - | - | - |
| 1777507957 | 16.67° C | 98% | - | 8.89 mm | - | - | - |
| 1777507230 | 16.67° C | 98% | - | 8.89 mm | - | - | - |
| 1777506139 | 16.67° C | 97% | - | 8.13 mm | - | - | - |
| 1777500023 | 17.78° C | 95% | - | 8.13 mm | - | - | - |
| 1777497889 | 20° C | 85% | - | 1.52 mm | - | - | - |
| 1777492106 | 21.11° C | 79% | - | 0.76 mm | - | - | - |
| 1777491380 | 21.67° C | 77% | - | 0.76 mm | - | - | - |
| 1777485267 | 20.56° C | 81% | - | 0.76 mm | - | - | - |
| 1777481668 | 19.44° C | 84% | - | 0.76 mm | - | - | - |
| 1777480578 | 19.44° C | 87% | - | 0.76 mm | - | - | - |
| 1777480229 | 19.44° C | 87% | - | 0.76 mm | - | - | - |
| 1777477711 | 18.33° C | 93% | - | 0.76 mm | - | - | - |
| 1777476262 | 18.33° C | 95% | - | 0.51 mm | - | - | - |
* Rain since midnight (hover to see other rain measurements)
** Current wind speed in m/s (hover to see current wind gust speed)